Nieuwpoort, Belgium
Current Conditions -  °F | °C
As of 7:25 AM on Friday 31 Oct 2014 (Local Time) from EBFN Reporting Station
Scattered Clouds Scattered Clouds  
Wind Chill: 52°   Ceiling: Unl
Heat Index: 52°   Visibility: 4mi
Dew Point: 50°   Wind: 5mph
Humidity: 94%   Direction: 180°S
Pressure: 30.12"   Gusts: NA
Location:  51.13°N, 2.75°E
Report Text: EBFN 310625Z 18004KT 7000 FEW100 SCT250 11/10 Q1020 WHT WHT TEMPO GRN
Loading
Personal Weather Stations






























Interactive Weather Map
Tropical Storm Tracking
New forecast layout! Learn more

10-Day Weather Forecast

Advertisements
Track Severe Weather on mobile